Flight NumberIPW1150 Date11.01.2019
Departure AirportLSZH Arrival AirportEDDF
Departure Time20.31Arrival Time20.45
Pilot In CommandVahid Haji Adineh Block Time0.40 Hours
Pilot Rating100 % AircraftD-ACUG [ A320-200 ]


Distance154.00 Nm. Passengers130
Fuel Used388 Kg. Cargo5996 Kg
Expense Details Income Details
Fuel Cost2,466 v$Ticket Sales26,000 v$
Pilot Salary4,697 v$ Cargo income6,835.00 v$
Crew Salary650 v$ Bonus7,828 v$
Gross Profit42,273 v$ ( 1,056,825 v$ )

Client Versionv2.2.1 Max Simrate1
Flight Critique Pilot CommentsEDDF 112020Z 20010KT 3500 -DZ BR FEW002 BKN003 BKN007 02/01 Q1022 R88/290095 TEMPO BKN005